createdAt,value
2022-08-03T00:01:38.548Z,31.20
2022-08-03T00:04:07.468Z,39.60
2022-08-03T00:06:37.273Z,40.90
2022-08-03T00:09:09.847Z,30.60
2022-08-03T00:11:38.186Z,43.20
2022-08-03T00:14:07.262Z,39.55
2022-08-03T00:16:35.944Z,37.95
2022-08-03T00:19:04.555Z,40.75
2022-08-03T00:21:32.871Z,30.45
2022-08-03T00:24:01.151Z,26.77
2022-08-03T00:26:29.412Z,32.92
2022-08-03T00:28:57.783Z,26.08
2022-08-03T00:31:51.413Z,27.05
2022-08-03T00:34:14.326Z,28.38
2022-08-03T00:36:42.550Z,25.08
2022-08-03T00:39:10.829Z,25.13
2022-08-03T00:41:39.222Z,25.25
2022-08-03T00:44:07.464Z,24.33
2022-08-03T00:46:35.767Z,25.33
2022-08-03T00:49:04.108Z,22.58
2022-08-03T00:53:18.676Z,21.75
2022-08-03T00:55:47.137Z,55.40
2022-08-03T00:58:15.382Z,20.08
2022-08-03T01:00:43.633Z,25.17
2022-08-03T01:03:12.181Z,29.52
2022-08-03T01:06:13.052Z,19.00
2022-08-03T01:08:44.163Z,17.90
2022-08-03T01:11:24.691Z,27.95
2022-08-03T01:14:18.627Z,23.63
2022-08-03T01:16:56.858Z,21.13
2022-08-03T01:19:37.305Z,20.52
2022-08-03T01:22:14.814Z,24.13
2022-08-03T01:25:10.312Z,21.45
2022-08-03T01:28:02.926Z,23.23
2022-08-03T02:02:31.986Z,18.88
2022-08-03T02:04:31.198Z,26.70
2022-08-03T02:07:03.128Z,21.00
2022-08-03T02:09:32.622Z,23.88
2022-08-03T02:12:01.486Z,22.90
2022-08-03T02:14:30.484Z,25.90
2022-08-03T02:16:59.279Z,26.20
2022-08-03T02:19:31.399Z,23.02
2022-08-03T02:22:05.585Z,22.92
2022-08-03T02:24:33.868Z,24.02
2022-08-03T02:27:04.190Z,18.38
2022-08-03T02:29:39.867Z,28.58
2022-08-03T02:32:16.781Z,19.23
2022-08-03T02:34:49.589Z,19.63
2022-08-03T02:37:20.412Z,22.50
2022-08-03T02:39:50.004Z,24.77
2022-08-03T02:42:21.313Z,19.42
2022-08-03T02:44:53.507Z,19.92
2022-08-03T02:47:23.034Z,24.20
2022-08-03T02:49:53.366Z,17.95
2022-08-03T02:52:24.611Z,25.88
2022-08-03T02:54:56.869Z,23.30
2022-08-03T02:57:28.455Z,26.48
2022-08-03T02:59:58.378Z,24.70
2022-08-03T03:02:28.520Z,22.65
2022-08-03T03:05:55.240Z,29.10
2022-08-03T03:07:52.071Z,20.15
2022-08-03T03:10:23.342Z,20.70
2022-08-03T03:12:53.943Z,22.92
2022-08-03T03:15:24.081Z,18.98
2022-08-03T03:17:53.408Z,19.52
2022-08-03T03:20:29.455Z,17.05
2022-08-03T03:23:02.684Z,20.48
2022-08-03T03:28:03.517Z,15.55
2022-08-03T03:30:35.313Z,16.73
2022-08-03T03:33:03.659Z,18.75
2022-08-03T03:35:38.756Z,19.23
2022-08-03T03:38:08.015Z,16.63
2022-08-03T03:40:37.324Z,14.27
2022-08-03T03:43:09.548Z,50.00
2022-08-03T03:45:38.277Z,15.30
2022-08-03T03:48:07.163Z,16.42
2022-08-03T03:50:36.910Z,18.38
2022-08-03T03:53:05.727Z,18.67
2022-08-03T03:55:58.975Z,16.70
2022-08-03T03:58:30.791Z,23.13
2022-08-03T04:00:59.440Z,16.02
2022-08-03T04:03:27.832Z,20.75
2022-08-03T04:05:56.325Z,14.73
2022-08-03T04:08:24.429Z,14.25
2022-08-03T04:11:30.428Z,14.30
2022-08-03T04:14:08.649Z,12.15
2022-08-03T04:16:43.798Z,12.02
2022-08-03T04:19:34.780Z,12.02
2022-08-03T04:22:09.856Z,14.50
2022-08-03T04:25:04.810Z,15.20
2022-08-03T04:27:38.309Z,10.20
2022-08-03T04:30:07.773Z,13.48
2022-08-03T04:32:41.879Z,11.18
2022-08-03T04:35:13.992Z,11.23
2022-08-03T04:37:47.724Z,18.30
2022-08-03T04:40:26.551Z,11.95
2022-08-03T04:43:00.306Z,13.60
2022-08-03T04:45:30.888Z,13.15
2022-08-03T04:48:00.224Z,17.00
2022-08-03T04:53:07.316Z,13.35
2022-08-03T04:55:36.426Z,18.25
2022-08-03T04:58:06.030Z,18.52
2022-08-03T05:00:34.362Z,15.48
2022-08-03T05:03:02.591Z,14.10
2022-08-03T05:05:48.884Z,34.13
2022-08-03T05:08:20.359Z,13.18
2022-08-03T05:10:58.919Z,16.38
2022-08-03T05:13:27.916Z,18.55
2022-08-03T05:15:56.254Z,14.90
2022-08-03T05:18:24.546Z,19.10
2022-08-03T05:20:53.005Z,23.98
2022-08-03T05:23:21.364Z,19.48
2022-08-03T05:25:50.053Z,14.75
2022-08-03T05:28:18.565Z,19.67
2022-08-03T05:30:46.882Z,17.58
2022-08-03T05:33:15.284Z,20.88
2022-08-03T05:35:57.398Z,20.05
2022-08-03T05:38:35.063Z,20.67
2022-08-03T05:41:21.188Z,17.33
2022-08-03T05:43:52.350Z,31.15
2022-08-03T05:46:21.198Z,32.13
2022-08-03T05:48:49.741Z,24.02
2022-08-03T05:51:18.147Z,22.52
2022-08-03T05:53:46.542Z,23.80
2022-08-03T05:56:16.329Z,26.40
2022-08-03T05:58:48.493Z,23.98
2022-08-03T06:01:17.739Z,27.90
2022-08-03T06:03:47.108Z,26.55
2022-08-03T06:06:15.602Z,21.88
2022-08-03T06:08:44.895Z,25.27
2022-08-03T06:11:13.572Z,22.20
2022-08-03T06:13:42.015Z,27.83
2022-08-03T06:16:10.635Z,25.67
2022-08-03T06:18:39.504Z,24.90
2022-08-03T06:21:09.699Z,23.13
2022-08-03T06:23:54.553Z,28.33
2022-08-03T06:26:28.330Z,28.00
2022-08-03T06:28:56.795Z,23.00
2022-08-03T06:31:32.419Z,23.67
2022-08-03T06:34:32.698Z,19.55
2022-08-03T06:36:58.560Z,22.10
2022-08-03T06:39:30.492Z,23.50
2022-08-03T06:41:58.871Z,35.75
2022-08-03T06:44:27.015Z,29.15
2022-08-03T06:46:55.353Z,26.73
2022-08-03T06:49:23.849Z,23.77
2022-08-03T06:52:03.491Z,35.13
2022-08-03T06:54:35.516Z,28.40
2022-08-03T06:57:04.130Z,29.70
2022-08-03T07:00:09.499Z,23.63
2022-08-03T07:02:21.073Z,27.45
2022-08-03T07:04:50.556Z,23.63
2022-08-03T07:07:18.816Z,17.73
2022-08-03T07:09:56.678Z,28.27
2022-08-03T07:12:27.732Z,30.17
2022-08-03T07:15:00.897Z,26.90
2022-08-03T07:17:31.594Z,36.35
2022-08-03T07:20:00.862Z,32.78
2022-08-03T07:22:28.983Z,25.95
2022-08-03T07:24:57.349Z,31.23
2022-08-03T07:27:25.997Z,29.63
2022-08-03T07:29:54.777Z,30.60
2022-08-03T07:32:23.415Z,28.98
2022-08-03T07:34:53.783Z,29.52
2022-08-03T07:37:24.144Z,33.78
2022-08-03T07:39:52.353Z,31.23
2022-08-03T07:42:20.619Z,37.58
2022-08-03T07:44:48.950Z,39.00
2022-08-03T07:47:34.768Z,33.65
2022-08-03T07:50:05.993Z,31.92
2022-08-03T07:52:34.575Z,25.52
2022-08-03T07:55:02.717Z,29.77
2022-08-03T07:57:30.979Z,26.27
2022-08-03T08:00:02.337Z,33.47
2022-08-03T08:02:40.660Z,27.95
2022-08-03T08:05:09.696Z,26.00
2022-08-03T08:07:38.445Z,16.40
2022-08-03T08:10:10.019Z,20.77
2022-08-03T08:12:39.881Z,22.17
2022-08-03T08:15:08.797Z,23.98
2022-08-03T08:17:45.327Z,29.58
2022-08-03T08:20:23.802Z,27.92
2022-08-03T08:23:13.903Z,24.70
2022-08-03T08:25:55.429Z,23.65
2022-08-03T08:28:32.755Z,28.10
2022-08-03T08:31:02.538Z,33.40
2022-08-03T08:36:20.029Z,26.70
2022-08-03T08:38:48.793Z,22.40
2022-08-03T08:41:17.383Z,34.13
2022-08-03T08:43:45.622Z,39.58
2022-08-03T08:46:23.310Z,43.95
2022-08-03T08:48:54.142Z,50.10
2022-08-03T08:51:23.774Z,39.00
2022-08-03T08:54:12.943Z,38.50
2022-08-03T08:56:41.276Z,27.33
2022-08-03T08:59:09.649Z,26.23
2022-08-03T09:01:38.260Z,29.63
2022-08-03T09:04:07.869Z,30.80
2022-08-03T09:06:36.468Z,42.53
2022-08-03T09:09:06.620Z,45.47
2022-08-03T09:11:53.188Z,52.85
2022-08-03T09:14:36.906Z,64.43
2022-08-03T09:17:07.949Z,59.78
2022-08-03T09:20:03.997Z,60.53
2022-08-03T09:22:32.279Z,51.72
2022-08-03T09:25:23.962Z,43.38
2022-08-03T09:27:53.452Z,49.38
2022-08-03T09:30:33.658Z,46.90
2022-08-03T09:33:06.594Z,36.58
2022-08-03T09:35:57.827Z,37.13
2022-08-03T09:38:27.065Z,34.13
2022-08-03T09:40:59.936Z,39.70
2022-08-03T09:43:30.118Z,42.42
2022-08-03T09:46:06.629Z,30.35
2022-08-03T09:48:35.202Z,26.77
2022-08-03T09:51:13.195Z,28.92
2022-08-03T09:53:59.323Z,23.85
2022-08-03T09:56:45.728Z,20.15
2022-08-03T09:59:23.893Z,16.27
2022-08-03T10:01:52.915Z,19.55
2022-08-03T10:04:22.262Z,13.95
2022-08-03T10:07:10.482Z,17.25
2022-08-03T10:09:41.965Z,16.75
2022-08-03T10:12:12.279Z,19.20
2022-08-03T10:14:42.597Z,20.23
2022-08-03T10:17:10.986Z,20.40
2022-08-03T10:19:39.310Z,23.15
2022-08-03T10:22:25.284Z,27.27
2022-08-03T10:25:05.576Z,22.63
2022-08-03T10:27:37.956Z,22.95
2022-08-03T10:30:09.309Z,22.67
2022-08-03T10:32:44.037Z,22.83
2022-08-03T10:35:20.254Z,20.60
2022-08-03T10:37:59.294Z,24.55
2022-08-03T10:43:32.868Z,21.98
2022-08-03T10:46:03.292Z,25.77
2022-08-03T10:48:33.530Z,23.83
2022-08-03T10:51:02.930Z,18.83
2022-08-03T10:53:44.144Z,15.95
2022-08-03T10:56:47.979Z,14.27
2022-08-03T10:59:47.801Z,16.52
2022-08-03T11:02:16.768Z,17.80
2022-08-03T11:04:45.259Z,15.63
2022-08-03T11:07:21.534Z,19.75
2022-08-03T11:09:57.209Z,14.40
2022-08-03T11:12:33.938Z,12.43
2022-08-03T11:15:08.208Z,18.27
2022-08-03T11:17:56.033Z,16.35
2022-08-03T11:20:46.179Z,10.70
2022-08-03T11:23:16.039Z,13.70
2022-08-03T11:26:16.291Z,10.43
2022-08-03T11:28:48.016Z,12.95
2022-08-03T11:31:49.787Z,8.93
2022-08-03T11:34:15.808Z,12.25
2022-08-03T11:37:23.128Z,12.18
2022-08-03T11:39:54.841Z,20.77
2022-08-03T11:42:25.967Z,11.65
2022-08-03T11:44:59.641Z,9.77
2022-08-03T11:47:30.479Z,10.25
2022-08-03T11:50:01.286Z,11.55
2022-08-03T11:52:36.288Z,12.60
2022-08-03T11:55:11.169Z,11.18
2022-08-03T11:59:16.400Z,12.13
2022-08-03T12:00:31.826Z,14.85
2022-08-03T12:03:03.168Z,18.35
2022-08-03T12:05:42.272Z,17.95
2022-08-03T12:08:32.753Z,12.05
2022-08-03T12:11:04.067Z,8.97
2022-08-03T12:14:44.470Z,6.53
2022-08-03T12:16:38.499Z,10.82
2022-08-03T12:19:07.233Z,10.40
2022-08-03T12:21:35.523Z,15.13
2022-08-03T12:24:05.642Z,12.18
2022-08-03T12:26:58.762Z,10.90
2022-08-03T12:29:28.434Z,7.65
2022-08-03T12:31:56.929Z,19.67
2022-08-03T12:34:25.458Z,12.43
2022-08-03T12:36:59.514Z,14.75
2022-08-03T12:39:28.786Z,9.00
2022-08-03T12:41:57.823Z,10.23
2022-08-03T12:44:34.658Z,10.85
2022-08-03T12:47:04.994Z,10.77
2022-08-03T12:49:50.464Z,18.00
2022-08-03T12:52:24.097Z,11.85
2022-08-03T12:55:00.284Z,14.55
2022-08-03T12:57:44.292Z,12.57
2022-08-03T13:00:21.652Z,14.23
2022-08-03T13:05:56.019Z,28.52
2022-08-03T13:08:25.928Z,20.33
2022-08-03T13:10:54.865Z,10.48
2022-08-03T13:13:41.807Z,17.15
2022-08-03T13:16:10.148Z,12.82
2022-08-03T13:18:38.726Z,17.45
2022-08-03T13:21:09.854Z,13.65
2022-08-03T13:23:38.510Z,17.33
2022-08-03T13:26:07.194Z,12.48
2022-08-03T13:28:35.652Z,13.20
2022-08-03T13:31:04.504Z,11.05
2022-08-03T13:33:35.670Z,11.45
2022-08-03T13:36:04.146Z,9.80
2022-08-03T13:38:32.590Z,8.13
2022-08-03T13:41:05.006Z,8.73
2022-08-03T13:43:33.850Z,7.50
2022-08-03T13:46:02.021Z,27.27
2022-08-03T13:48:36.721Z,22.95
2022-08-03T13:51:21.689Z,18.38
2022-08-03T13:53:52.113Z,20.42
2022-08-03T13:56:20.698Z,15.32
2022-08-03T13:58:49.296Z,17.02
2022-08-03T14:01:29.812Z,18.85
2022-08-03T14:04:17.554Z,13.13
2022-08-03T14:06:50.684Z,14.90
2022-08-03T14:09:19.332Z,19.83
2022-08-03T14:12:07.319Z,20.73
2022-08-03T14:14:36.534Z,21.90
2022-08-03T14:17:05.262Z,25.80
2022-08-03T14:19:33.662Z,24.98
2022-08-03T14:22:21.734Z,13.00
2022-08-03T14:24:49.902Z,15.68
2022-08-03T14:27:20.168Z,16.95
2022-08-03T14:29:49.563Z,14.77
2022-08-03T14:32:18.034Z,12.60
2022-08-03T14:34:46.441Z,14.00
2022-08-03T14:37:14.870Z,12.38
2022-08-03T14:40:00.280Z,15.20
2022-08-03T14:42:29.322Z,25.35
2022-08-03T14:45:03.449Z,18.73
2022-08-03T14:47:34.243Z,16.60
2022-08-03T14:50:31.147Z,20.42
2022-08-03T14:53:05.114Z,13.43
2022-08-03T14:55:38.570Z,12.77
2022-08-03T14:58:20.933Z,19.23
2022-08-03T15:03:20.736Z,22.17
2022-08-03T15:05:49.507Z,17.08
2022-08-03T15:08:17.789Z,19.75
2022-08-03T15:10:46.642Z,12.95
2022-08-03T15:13:18.439Z,26.55
2022-08-03T15:15:47.894Z,17.42
2022-08-03T15:18:16.746Z,24.75
2022-08-03T15:20:46.386Z,21.23
2022-08-03T15:23:16.511Z,11.57
2022-08-03T15:26:28.120Z,11.60
2022-08-03T15:28:37.435Z,10.85
2022-08-03T15:31:06.419Z,15.52
2022-08-03T15:33:35.298Z,8.82
2022-08-03T15:36:04.969Z,17.48
2022-08-03T15:38:33.176Z,11.00
2022-08-03T15:41:01.741Z,12.10
2022-08-03T15:43:29.901Z,13.88
2022-08-03T15:46:27.677Z,11.25
2022-08-03T15:48:47.097Z,12.00
2022-08-03T15:51:15.850Z,12.63
2022-08-03T15:53:44.099Z,8.30
2022-08-03T15:56:16.655Z,22.55
2022-08-03T15:59:09.396Z,10.18
2022-08-03T16:01:36.969Z,16.45
2022-08-03T16:04:05.687Z,29.00
2022-08-03T16:06:35.085Z,7.13
2022-08-03T16:09:23.574Z,20.73
2022-08-03T16:15:24.428Z,13.05
2022-08-03T16:17:52.827Z,15.95
2022-08-03T16:20:31.407Z,17.92
2022-08-03T16:23:11.009Z,23.80
2022-08-03T16:25:41.757Z,10.68
2022-08-03T16:28:14.838Z,12.35
2022-08-03T16:30:45.215Z,12.43
2022-08-03T16:33:17.300Z,13.35
2022-08-03T16:35:47.556Z,10.00
2022-08-03T16:38:19.090Z,11.70
2022-08-03T16:40:50.969Z,11.52
2022-08-03T16:43:21.214Z,7.75
2022-08-03T16:45:49.979Z,12.55
2022-08-03T16:48:19.555Z,27.85
2022-08-03T16:50:48.278Z,14.95
2022-08-03T16:53:18.582Z,19.42
2022-08-03T16:56:02.992Z,14.45
2022-08-03T16:58:41.450Z,17.95
2022-08-03T17:01:22.216Z,20.13
2022-08-03T17:06:36.078Z,26.13
2022-08-03T17:09:22.989Z,21.23
2022-08-03T17:11:52.116Z,34.90
2022-08-03T17:14:22.551Z,20.77
2022-08-03T17:16:53.983Z,22.45
2022-08-03T17:19:24.726Z,18.05
2022-08-03T17:22:01.642Z,24.63
2022-08-03T17:24:34.013Z,29.83
2022-08-03T17:27:09.029Z,29.67
2022-08-03T17:29:45.351Z,64.47
2022-08-03T17:32:18.327Z,52.65
2022-08-03T17:34:51.460Z,50.38
2022-08-03T17:37:49.995Z,37.35
2022-08-03T17:40:17.947Z,53.42
2022-08-03T17:42:50.770Z,47.85
2022-08-03T17:45:20.476Z,46.00
2022-08-03T17:47:57.906Z,44.28
2022-08-03T17:53:26.373Z,17.77
2022-08-03T17:56:44.557Z,18.25
2022-08-03T17:59:17.014Z,16.40
2022-08-03T18:02:47.570Z,16.58
2022-08-03T18:05:21.667Z,12.65
2022-08-03T18:08:01.738Z,12.65
2022-08-03T18:10:36.382Z,11.18
2022-08-03T18:13:24.665Z,14.63
2022-08-03T18:18:54.335Z,17.95
2022-08-03T18:21:23.861Z,18.23
2022-08-03T18:23:52.831Z,15.55
2022-08-03T18:26:22.458Z,17.08
2022-08-03T18:28:53.803Z,24.15
2022-08-03T18:31:59.502Z,51.28
2022-08-03T18:34:16.979Z,32.08
2022-08-03T18:37:07.458Z,34.75
2022-08-03T18:39:50.115Z,34.88
2022-08-03T18:42:26.313Z,39.60
2022-08-03T18:44:57.106Z,35.15
2022-08-03T18:47:51.770Z,28.58
2022-08-03T18:50:33.573Z,34.53
2022-08-03T18:54:03.265Z,33.00
2022-08-03T18:56:54.183Z,35.35
2022-08-03T18:59:30.096Z,52.53
2022-08-03T19:02:20.917Z,56.33
2022-08-03T19:04:52.804Z,30.33
2022-08-03T19:07:27.752Z,33.95
2022-08-03T19:10:10.162Z,44.80
2022-08-03T19:12:45.844Z,44.45
2022-08-03T19:15:15.575Z,36.38
2022-08-03T19:17:53.409Z,36.67
2022-08-03T19:20:27.165Z,34.05
2022-08-03T19:22:58.357Z,29.42
2022-08-03T19:25:35.124Z,35.25
2022-08-03T19:28:07.205Z,31.58
2022-08-03T19:30:38.724Z,16.83
2022-08-03T19:33:12.526Z,50.67
2022-08-03T19:35:55.384Z,53.55
2022-08-03T19:38:29.826Z,36.47
2022-08-03T19:41:04.132Z,32.20
2022-08-03T19:43:49.478Z,34.67
2022-08-03T19:46:30.732Z,26.02
2022-08-03T19:49:10.680Z,32.38
2022-08-03T19:51:58.472Z,29.55
2022-08-03T19:54:53.817Z,30.35
2022-08-03T19:57:25.729Z,34.47
2022-08-03T19:59:56.376Z,40.13
2022-08-03T20:02:26.343Z,32.97
2022-08-03T20:05:00.443Z,42.13
2022-08-03T20:07:31.556Z,49.70
2022-08-03T20:10:02.409Z,46.30
2022-08-03T20:12:34.393Z,32.33
2022-08-03T20:15:07.940Z,24.02
2022-08-03T20:17:54.616Z,30.77
2022-08-03T20:20:32.178Z,36.80
2022-08-03T20:23:07.600Z,27.33
2022-08-03T20:25:58.380Z,34.33
2022-08-03T20:28:51.161Z,26.73
2022-08-03T20:31:25.243Z,25.25
2022-08-03T20:34:06.329Z,34.25
2022-08-03T20:36:34.771Z,28.77
2022-08-03T20:39:07.867Z,28.48
2022-08-03T20:41:38.806Z,27.33
2022-08-03T20:44:07.424Z,28.58
2022-08-03T20:46:50.365Z,32.58
2022-08-03T20:49:24.778Z,34.03
2022-08-03T20:51:54.890Z,33.67
2022-08-03T20:54:31.017Z,25.25
2022-08-03T20:57:04.217Z,21.48
2022-08-03T20:59:47.175Z,24.55
2022-08-03T21:05:08.566Z,39.08
2022-08-03T21:08:06.035Z,22.88
2022-08-03T21:10:39.448Z,19.13
2022-08-03T21:13:03.991Z,10.27
2022-08-03T21:13:30.330Z,25.15
2022-08-03T21:16:06.773Z,28.08
2022-08-03T21:18:49.787Z,20.67
2022-08-03T21:21:21.337Z,25.05
2022-08-03T21:23:54.826Z,22.60
2022-08-03T21:26:26.514Z,31.83
2022-08-03T21:28:57.732Z,26.10
2022-08-03T21:31:27.117Z,26.77
2022-08-03T21:34:04.417Z,26.88
2022-08-03T21:36:38.120Z,35.08
2022-08-03T21:39:09.468Z,31.83
2022-08-03T21:41:39.634Z,21.67
2022-08-03T21:44:08.855Z,27.25
2022-08-03T21:46:39.823Z,31.38
2022-08-03T21:50:02.741Z,42.55
2022-08-03T21:52:00.244Z,34.03
2022-08-03T21:54:34.856Z,41.20
2022-08-03T21:57:06.435Z,25.80
2022-08-03T21:59:37.820Z,47.58
2022-08-03T22:02:16.461Z,51.20
2022-08-03T22:04:56.950Z,38.83
2022-08-03T22:07:29.941Z,32.72
2022-08-03T22:10:00.319Z,36.22
2022-08-03T22:12:30.789Z,32.45
2022-08-03T22:15:02.073Z,45.22
2022-08-03T22:17:54.920Z,29.02
2022-08-03T22:20:23.035Z,21.08
2022-08-03T22:22:56.556Z,17.23
2022-08-03T22:25:29.570Z,15.63
2022-08-03T22:28:00.840Z,19.92
2022-08-03T22:30:30.201Z,15.20
2022-08-03T22:33:00.372Z,25.80
2022-08-03T22:35:29.044Z,30.13
2022-08-03T22:37:59.492Z,35.10
2022-08-03T22:40:28.492Z,28.92
2022-08-03T22:42:57.783Z,24.77
2022-08-03T22:46:07.855Z,31.65
2022-08-03T22:48:15.075Z,28.27
2022-08-03T22:50:45.480Z,36.00
2022-08-03T22:53:22.533Z,30.50
2022-08-03T22:55:52.444Z,27.17
2022-08-03T22:58:20.973Z,21.08
2022-08-03T23:00:55.112Z,18.88
2022-08-03T23:03:59.923Z,16.35
2022-08-03T23:08:47.723Z,24.85
2022-08-03T23:11:19.145Z,22.65
2022-08-03T23:13:54.754Z,23.92
2022-08-03T23:16:28.987Z,28.58
2022-08-03T23:19:16.776Z,22.05
2022-08-03T23:22:00.313Z,29.52
2022-08-03T23:27:02.974Z,22.77
2022-08-03T23:29:34.458Z,29.20
2022-08-03T23:32:04.049Z,32.87
2022-08-03T23:34:33.654Z,51.85
2022-08-03T23:37:02.540Z,56.15
2022-08-03T23:39:35.063Z,37.25
2022-08-03T23:42:04.673Z,26.90
2022-08-03T23:44:35.204Z,33.47
2022-08-03T23:47:03.525Z,32.85
2022-08-03T23:49:32.119Z,41.50
2022-08-03T23:52:09.626Z,37.58
2022-08-03T23:54:59.321Z,34.33
2022-08-03T23:57:45.662Z,30.50
